sensor_id;sensor_type;location;lat;lon;timestamp;temperature;humidity
65478;SHT31;53678;39.642;22.430;2022-07-29T00:01:23;27.62;52.39
65478;SHT31;53678;39.642;22.430;2022-07-29T00:03:49;27.77;51.99
65478;SHT31;53678;39.642;22.430;2022-07-29T00:06:15;27.86;51.84
65478;SHT31;53678;39.642;22.430;2022-07-29T00:08:41;27.80;51.91
65478;SHT31;53678;39.642;22.430;2022-07-29T00:11:07;27.92;51.92
65478;SHT31;53678;39.642;22.430;2022-07-29T00:13:33;27.93;51.57
65478;SHT31;53678;39.642;22.430;2022-07-29T00:15:59;27.93;51.71
65478;SHT31;53678;39.642;22.430;2022-07-29T00:18:25;28.08;51.89
65478;SHT31;53678;39.642;22.430;2022-07-29T00:20:50;27.92;52.56
65478;SHT31;53678;39.642;22.430;2022-07-29T00:23:16;27.72;53.77
65478;SHT31;53678;39.642;22.430;2022-07-29T00:25:42;27.81;53.39
65478;SHT31;53678;39.642;22.430;2022-07-29T00:28:08;26.93;54.94
65478;SHT31;53678;39.642;22.430;2022-07-29T00:30:34;26.18;56.35
65478;SHT31;53678;39.642;22.430;2022-07-29T00:33:01;25.74;57.21
65478;SHT31;53678;39.642;22.430;2022-07-29T00:35:26;25.76;57.39
65478;SHT31;53678;39.642;22.430;2022-07-29T00:38:15;25.93;56.44
65478;SHT31;53678;39.642;22.430;2022-07-29T00:40:42;26.04;56.25
65478;SHT31;53678;39.642;22.430;2022-07-29T00:43:08;26.31;55.52
65478;SHT31;53678;39.642;22.430;2022-07-29T00:45:34;26.51;54.85
65478;SHT31;53678;39.642;22.430;2022-07-29T00:48:02;26.66;54.76
65478;SHT31;53678;39.642;22.430;2022-07-29T00:50:28;26.89;54.17
65478;SHT31;53678;39.642;22.430;2022-07-29T00:52:54;26.96;54.28
65478;SHT31;53678;39.642;22.430;2022-07-29T00:55:21;26.79;54.93
65478;SHT31;53678;39.642;22.430;2022-07-29T00:57:47;26.82;54.88
65478;SHT31;53678;39.642;22.430;2022-07-29T01:00:19;26.92;54.74
65478;SHT31;53678;39.642;22.430;2022-07-29T01:02:46;27.10;54.53
65478;SHT31;53678;39.642;22.430;2022-07-29T01:05:20;26.66;55.75
65478;SHT31;53678;39.642;22.430;2022-07-29T01:07:48;26.63;55.85
65478;SHT31;53678;39.642;22.430;2022-07-29T01:10:16;26.75;55.35
65478;SHT31;53678;39.642;22.430;2022-07-29T01:12:43;26.63;56.34
65478;SHT31;53678;39.642;22.430;2022-07-29T01:15:12;26.66;56.30
65478;SHT31;53678;39.642;22.430;2022-07-29T01:24:17;27.00;55.53
65478;SHT31;53678;39.642;22.430;2022-07-29T01:26:52;27.13;55.23
65478;SHT31;53678;39.642;22.430;2022-07-29T01:29:58;27.23;55.00
65478;SHT31;53678;39.642;22.430;2022-07-29T01:32:31;27.31;54.78
65478;SHT31;53678;39.642;22.430;2022-07-29T01:35:04;27.40;54.83
65478;SHT31;53678;39.642;22.430;2022-07-29T01:37:52;27.40;54.92
65478;SHT31;53678;39.642;22.430;2022-07-29T01:40:40;27.44;55.15
65478;SHT31;53678;39.642;22.430;2022-07-29T01:43:15;27.31;55.57
65478;SHT31;53678;39.642;22.430;2022-07-29T01:45:47;27.31;55.86
65478;SHT31;53678;39.642;22.430;2022-07-29T01:48:16;27.37;55.89
65478;SHT31;53678;39.642;22.430;2022-07-29T01:53:43;27.40;55.82
65478;SHT31;53678;39.642;22.430;2022-07-29T01:56:12;27.45;55.99
65478;SHT31;53678;39.642;22.430;2022-07-29T01:58:41;27.41;56.11
65478;SHT31;53678;39.642;22.430;2022-07-29T02:01:09;27.43;57.10
65478;SHT31;53678;39.642;22.430;2022-07-29T02:03:37;27.47;56.86
65478;SHT31;53678;39.642;22.430;2022-07-29T02:06:06;27.51;57.66
65478;SHT31;53678;39.642;22.430;2022-07-29T02:08:33;27.54;57.86
65478;SHT31;53678;39.642;22.430;2022-07-29T02:11:01;27.59;57.93
65478;SHT31;53678;39.642;22.430;2022-07-29T02:13:29;27.62;58.05
65478;SHT31;53678;39.642;22.430;2022-07-29T02:15:58;27.59;57.22
65478;SHT31;53678;39.642;22.430;2022-07-29T02:18:27;27.31;57.74
65478;SHT31;53678;39.642;22.430;2022-07-29T02:20:55;27.13;58.88
65478;SHT31;53678;39.642;22.430;2022-07-29T02:23:24;27.20;58.84
65478;SHT31;53678;39.642;22.430;2022-07-29T02:25:55;27.27;57.40
65478;SHT31;53678;39.642;22.430;2022-07-29T02:28:24;27.16;57.12
65478;SHT31;53678;39.642;22.430;2022-07-29T02:30:52;27.13;57.15
65478;SHT31;53678;39.642;22.430;2022-07-29T02:33:19;27.13;58.33
65478;SHT31;53678;39.642;22.430;2022-07-29T02:35:48;27.11;59.52
65478;SHT31;53678;39.642;22.430;2022-07-29T02:38:15;27.08;59.10
65478;SHT31;53678;39.642;22.430;2022-07-29T02:41:11;26.99;58.68
65478;SHT31;53678;39.642;22.430;2022-07-29T02:43:39;27.10;59.47
65478;SHT31;53678;39.642;22.430;2022-07-29T02:46:12;27.20;59.03
65478;SHT31;53678;39.642;22.430;2022-07-29T02:48:48;27.06;60.23
65478;SHT31;53678;39.642;22.430;2022-07-29T02:51:22;27.11;60.14
65478;SHT31;53678;39.642;22.430;2022-07-29T02:53:51;27.13;60.77
65478;SHT31;53678;39.642;22.430;2022-07-29T02:56:24;27.17;59.31
65478;SHT31;53678;39.642;22.430;2022-07-29T02:58:56;26.82;59.78
65478;SHT31;53678;39.642;22.430;2022-07-29T03:01:24;26.76;61.48
65478;SHT31;53678;39.642;22.430;2022-07-29T03:03:53;26.95;61.26
65478;SHT31;53678;39.642;22.430;2022-07-29T03:06:22;26.49;60.99
65478;SHT31;53678;39.642;22.430;2022-07-29T03:08:49;26.21;62.32
65478;SHT31;53678;39.642;22.430;2022-07-29T03:11:16;26.32;62.05
65478;SHT31;53678;39.642;22.430;2022-07-29T03:13:43;26.24;62.55
65478;SHT31;53678;39.642;22.430;2022-07-29T03:16:10;26.39;61.89
65478;SHT31;53678;39.642;22.430;2022-07-29T03:18:37;26.29;60.71
65478;SHT31;53678;39.642;22.430;2022-07-29T03:21:03;26.25;60.07
65478;SHT31;53678;39.642;22.430;2022-07-29T03:23:30;25.76;60.74
65478;SHT31;53678;39.642;22.430;2022-07-29T03:25:56;25.04;60.39
65478;SHT31;53678;39.642;22.430;2022-07-29T03:28:23;25.21;60.61
65478;SHT31;53678;39.642;22.430;2022-07-29T03:30:49;25.49;59.77
65478;SHT31;53678;39.642;22.430;2022-07-29T03:33:16;25.42;60.20
65478;SHT31;53678;39.642;22.430;2022-07-29T03:35:42;25.59;59.77
65478;SHT31;53678;39.642;22.430;2022-07-29T03:38:08;25.71;59.37
65478;SHT31;53678;39.642;22.430;2022-07-29T03:40:40;25.81;59.26
65478;SHT31;53678;39.642;22.430;2022-07-29T03:43:08;26.08;58.65
65478;SHT31;53678;39.642;22.430;2022-07-29T03:45:36;26.24;58.69
65478;SHT31;53678;39.642;22.430;2022-07-29T03:48:07;26.83;57.57
65478;SHT31;53678;39.642;22.430;2022-07-29T03:50:34;27.00;58.88
65478;SHT31;53678;39.642;22.430;2022-07-29T03:53:01;27.33;59.74
65478;SHT31;53678;39.642;22.430;2022-07-29T03:55:29;27.44;59.37
65478;SHT31;53678;39.642;22.430;2022-07-29T03:57:59;27.50;59.00
65478;SHT31;53678;39.642;22.430;2022-07-29T04:00:27;27.48;58.92
65478;SHT31;53678;39.642;22.430;2022-07-29T04:02:53;27.86;57.85
65478;SHT31;53678;39.642;22.430;2022-07-29T04:05:19;28.22;57.11
65478;SHT31;53678;39.642;22.430;2022-07-29T04:07:49;28.40;56.47
65478;SHT31;53678;39.642;22.430;2022-07-29T04:10:17;28.82;55.13
65478;SHT31;53678;39.642;22.430;2022-07-29T04:12:44;28.90;54.46
65478;SHT31;53678;39.642;22.430;2022-07-29T04:15:10;28.86;55.21
65478;SHT31;53678;39.642;22.430;2022-07-29T04:17:37;28.95;55.20
65478;SHT31;53678;39.642;22.430;2022-07-29T04:20:04;28.82;55.53
65478;SHT31;53678;39.642;22.430;2022-07-29T04:22:30;29.09;54.94
65478;SHT31;53678;39.642;22.430;2022-07-29T04:24:56;29.39;54.21
65478;SHT31;53678;39.642;22.430;2022-07-29T04:27:22;29.91;53.06
65478;SHT31;53678;39.642;22.430;2022-07-29T04:29:49;30.17;52.63
65478;SHT31;53678;39.642;22.430;2022-07-29T04:32:15;30.52;51.81
65478;SHT31;53678;39.642;22.430;2022-07-29T04:34:41;30.69;51.35
65478;SHT31;53678;39.642;22.430;2022-07-29T04:37:07;30.83;51.05
65478;SHT31;53678;39.642;22.430;2022-07-29T04:39:33;30.80;50.98
65478;SHT31;53678;39.642;22.430;2022-07-29T04:41:59;31.21;50.19
65478;SHT31;53678;39.642;22.430;2022-07-29T04:44:25;31.23;49.88
65478;SHT31;53678;39.642;22.430;2022-07-29T04:46:52;31.20;49.67
65478;SHT31;53678;39.642;22.430;2022-07-29T04:49:18;31.74;48.82
65478;SHT31;53678;39.642;22.430;2022-07-29T04:51:44;32.22;47.83
65478;SHT31;53678;39.642;22.430;2022-07-29T04:54:10;31.92;48.05
65478;SHT31;53678;39.642;22.430;2022-07-29T04:56:36;32.41;47.19
65478;SHT31;53678;39.642;22.430;2022-07-29T04:59:02;31.89;48.20
65478;SHT31;53678;39.642;22.430;2022-07-29T05:01:28;32.16;47.59
65478;SHT31;53678;39.642;22.430;2022-07-29T05:03:53;31.90;48.17
65478;SHT31;53678;39.642;22.430;2022-07-29T05:06:19;32.41;47.23
65478;SHT31;53678;39.642;22.430;2022-07-29T05:08:45;33.00;46.43
65478;SHT31;53678;39.642;22.430;2022-07-29T05:11:11;33.53;45.18
65478;SHT31;53678;39.642;22.430;2022-07-29T05:13:37;33.21;45.76
65478;SHT31;53678;39.642;22.430;2022-07-29T05:16:03;33.10;45.97
65478;SHT31;53678;39.642;22.430;2022-07-29T05:18:29;32.85;46.38
65478;SHT31;53678;39.642;22.430;2022-07-29T05:20:55;32.44;47.08
65478;SHT31;53678;39.642;22.430;2022-07-29T05:23:21;32.46;47.27
65478;SHT31;53678;39.642;22.430;2022-07-29T05:25:47;32.67;46.82
65478;SHT31;53678;39.642;22.430;2022-07-29T05:28:13;33.19;46.26
65478;SHT31;53678;39.642;22.430;2022-07-29T05:30:39;34.10;44.55
65478;SHT31;53678;39.642;22.430;2022-07-29T05:33:05;34.20;44.05
65478;SHT31;53678;39.642;22.430;2022-07-29T05:35:31;34.06;44.63
65478;SHT31;53678;39.642;22.430;2022-07-29T05:37:58;34.43;43.95
65478;SHT31;53678;39.642;22.430;2022-07-29T05:40:24;33.69;44.97
65478;SHT31;53678;39.642;22.430;2022-07-29T05:42:49;32.88;46.68
65478;SHT31;53678;39.642;22.430;2022-07-29T05:45:15;32.84;46.92
65478;SHT31;53678;39.642;22.430;2022-07-29T05:47:41;32.80;46.97
65478;SHT31;53678;39.642;22.430;2022-07-29T05:50:07;32.16;48.12
65478;SHT31;53678;39.642;22.430;2022-07-29T05:52:34;32.13;47.86
65478;SHT31;53678;39.642;22.430;2022-07-29T05:55:00;32.05;48.46
65478;SHT31;53678;39.642;22.430;2022-07-29T05:57:29;31.78;48.86
65478;SHT31;53678;39.642;22.430;2022-07-29T05:59:55;31.60;48.89
65478;SHT31;53678;39.642;22.430;2022-07-29T06:02:21;31.78;48.49
65478;SHT31;53678;39.642;22.430;2022-07-29T06:04:47;31.95;48.55
65478;SHT31;53678;39.642;22.430;2022-07-29T06:07:14;31.65;48.86
65478;SHT31;53678;39.642;22.430;2022-07-29T06:09:40;31.55;48.75
65478;SHT31;53678;39.642;22.430;2022-07-29T06:12:06;31.69;48.51
65478;SHT31;53678;39.642;22.430;2022-07-29T06:14:32;32.46;47.23
65478;SHT31;53678;39.642;22.430;2022-07-29T06:16:58;32.29;47.36
65478;SHT31;53678;39.642;22.430;2022-07-29T06:19:24;32.47;47.23
65478;SHT31;53678;39.642;22.430;2022-07-29T06:21:50;32.35;47.19
65478;SHT31;53678;39.642;22.430;2022-07-29T06:24:15;32.56;46.90
65478;SHT31;53678;39.642;22.430;2022-07-29T06:26:42;32.78;46.54
65478;SHT31;53678;39.642;22.430;2022-07-29T06:29:08;32.85;46.32
65478;SHT31;53678;39.642;22.430;2022-07-29T06:31:36;32.55;46.82
65478;SHT31;53678;39.642;22.430;2022-07-29T06:34:03;32.40;47.30
65478;SHT31;53678;39.642;22.430;2022-07-29T06:36:29;32.25;47.24
65478;SHT31;53678;39.642;22.430;2022-07-29T06:38:55;31.86;47.98
65478;SHT31;53678;39.642;22.430;2022-07-29T06:41:21;31.74;48.29
65478;SHT31;53678;39.642;22.430;2022-07-29T06:43:48;32.02;47.88
65478;SHT31;53678;39.642;22.430;2022-07-29T06:46:18;32.25;47.63
65478;SHT31;53678;39.642;22.430;2022-07-29T06:48:44;32.36;47.07
65478;SHT31;53678;39.642;22.430;2022-07-29T06:51:11;32.68;46.20
65478;SHT31;53678;39.642;22.430;2022-07-29T06:53:38;31.44;48.63
65478;SHT31;53678;39.642;22.430;2022-07-29T06:56:05;31.55;48.41
65478;SHT31;53678;39.642;22.430;2022-07-29T06:58:34;31.60;48.73
65478;SHT31;53678;39.642;22.430;2022-07-29T07:01:02;31.55;48.96
65478;SHT31;53678;39.642;22.430;2022-07-29T07:03:29;32.27;47.21
65478;SHT31;53678;39.642;22.430;2022-07-29T07:05:55;32.68;46.80
65478;SHT31;53678;39.642;22.430;2022-07-29T07:08:22;32.90;45.85
65478;SHT31;53678;39.642;22.430;2022-07-29T07:10:50;32.33;46.26
65478;SHT31;53678;39.642;22.430;2022-07-29T07:13:16;32.84;45.32
65478;SHT31;53678;39.642;22.430;2022-07-29T07:15:43;32.88;45.96
65478;SHT31;53678;39.642;22.430;2022-07-29T07:18:10;33.24;44.69
65478;SHT31;53678;39.642;22.430;2022-07-29T07:20:36;32.15;46.12
65478;SHT31;53678;39.642;22.430;2022-07-29T07:23:03;31.45;48.65
65478;SHT31;53678;39.642;22.430;2022-07-29T07:25:28;31.60;48.06
65478;SHT31;53678;39.642;22.430;2022-07-29T07:27:54;32.61;45.90
65478;SHT31;53678;39.642;22.430;2022-07-29T07:30:20;33.21;44.56
65478;SHT31;53678;39.642;22.430;2022-07-29T07:32:47;33.36;44.43
65478;SHT31;53678;39.642;22.430;2022-07-29T07:35:13;33.26;44.30
65478;SHT31;53678;39.642;22.430;2022-07-29T07:37:39;33.01;44.88
65478;SHT31;53678;39.642;22.430;2022-07-29T07:40:09;31.77;47.36
65478;SHT31;53678;39.642;22.430;2022-07-29T07:42:38;33.00;45.12
65478;SHT31;53678;39.642;22.430;2022-07-29T07:45:04;33.72;43.49
65478;SHT31;53678;39.642;22.430;2022-07-29T07:47:31;33.92;42.93
65478;SHT31;53678;39.642;22.430;2022-07-29T07:49:57;34.45;42.49
65478;SHT31;53678;39.642;22.430;2022-07-29T07:52:23;33.72;43.52
65478;SHT31;53678;39.642;22.430;2022-07-29T07:54:50;32.81;44.82
65478;SHT31;53678;39.642;22.430;2022-07-29T07:57:16;32.71;45.80
65478;SHT31;53678;39.642;22.430;2022-07-29T07:59:42;33.04;45.12
65478;SHT31;53678;39.642;22.430;2022-07-29T08:02:09;32.19;46.36
65478;SHT31;53678;39.642;22.430;2022-07-29T08:04:35;33.08;44.73
65478;SHT31;53678;39.642;22.430;2022-07-29T08:07:01;32.27;46.27
65478;SHT31;53678;39.642;22.430;2022-07-29T08:09:28;32.56;45.81
65478;SHT31;53678;39.642;22.430;2022-07-29T08:11:55;32.63;46.47
65478;SHT31;53678;39.642;22.430;2022-07-29T08:14:21;32.59;46.03
65478;SHT31;53678;39.642;22.430;2022-07-29T08:16:47;32.57;45.88
65478;SHT31;53678;39.642;22.430;2022-07-29T08:19:13;32.84;45.43
65478;SHT31;53678;39.642;22.430;2022-07-29T08:21:39;32.91;45.44
65478;SHT31;53678;39.642;22.430;2022-07-29T08:24:05;33.55;44.50
65478;SHT31;53678;39.642;22.430;2022-07-29T08:26:50;33.88;43.80
65478;SHT31;53678;39.642;22.430;2022-07-29T08:29:16;34.47;42.67
65478;SHT31;53678;39.642;22.430;2022-07-29T08:31:43;34.59;42.25
65478;SHT31;53678;39.642;22.430;2022-07-29T08:34:10;34.71;41.85
65478;SHT31;53678;39.642;22.430;2022-07-29T08:36:37;34.79;41.47
65478;SHT31;53678;39.642;22.430;2022-07-29T08:39:04;34.86;41.94
65478;SHT31;53678;39.642;22.430;2022-07-29T08:41:30;34.78;42.29
65478;SHT31;53678;39.642;22.430;2022-07-29T08:43:57;34.11;43.86
65478;SHT31;53678;39.642;22.430;2022-07-29T08:46:23;34.31;42.37
65478;SHT31;53678;39.642;22.430;2022-07-29T08:48:49;34.14;42.35
65478;SHT31;53678;39.642;22.430;2022-07-29T08:51:17;33.96;42.86
65478;SHT31;53678;39.642;22.430;2022-07-29T08:53:46;33.08;44.70
65478;SHT31;53678;39.642;22.430;2022-07-29T08:56:16;31.64;47.34
65478;SHT31;53678;39.642;22.430;2022-07-29T08:58:47;31.77;47.14
65478;SHT31;53678;39.642;22.430;2022-07-29T09:01:17;32.84;45.02
65478;SHT31;53678;39.642;22.430;2022-07-29T09:03:44;33.48;44.40
65478;SHT31;53678;39.642;22.430;2022-07-29T09:06:17;33.36;44.42
65478;SHT31;53678;39.642;22.430;2022-07-29T09:08:44;33.32;44.04
65478;SHT31;53678;39.642;22.430;2022-07-29T09:11:11;33.29;44.65
65478;SHT31;53678;39.642;22.430;2022-07-29T09:13:37;33.79;43.44
65478;SHT31;53678;39.642;22.430;2022-07-29T09:16:03;33.03;44.36
65478;SHT31;53678;39.642;22.430;2022-07-29T09:18:34;33.19;44.22
65478;SHT31;53678;39.642;22.430;2022-07-29T09:21:02;33.58;43.24
65478;SHT31;53678;39.642;22.430;2022-07-29T09:24:09;33.76;43.42
65478;SHT31;53678;39.642;22.430;2022-07-29T09:26:43;33.77;43.39
65478;SHT31;53678;39.642;22.430;2022-07-29T09:29:21;33.65;43.88
65478;SHT31;53678;39.642;22.430;2022-07-29T09:31:50;33.82;43.25
65478;SHT31;53678;39.642;22.430;2022-07-29T09:34:27;33.97;42.40
65478;SHT31;53678;39.642;22.430;2022-07-29T09:36:57;34.09;42.58
65478;SHT31;53678;39.642;22.430;2022-07-29T09:39:34;34.57;41.36
65478;SHT31;53678;39.642;22.430;2022-07-29T09:42:03;34.36;42.11
65478;SHT31;53678;39.642;22.430;2022-07-29T09:47:07;34.65;41.05
65478;SHT31;53678;39.642;22.430;2022-07-29T09:49:35;34.92;40.64
65478;SHT31;53678;39.642;22.430;2022-07-29T09:52:15;35.07;40.21
65478;SHT31;53678;39.642;22.430;2022-07-29T09:54:41;34.71;41.10
65478;SHT31;53678;39.642;22.430;2022-07-29T09:57:09;34.30;41.92
65478;SHT31;53678;39.642;22.430;2022-07-29T09:59:38;33.90;42.55
65478;SHT31;53678;39.642;22.430;2022-07-29T10:02:14;33.99;42.28
65478;SHT31;53678;39.642;22.430;2022-07-29T10:04:41;34.10;42.26
65478;SHT31;53678;39.642;22.430;2022-07-29T10:07:08;34.31;41.77
65478;SHT31;53678;39.642;22.430;2022-07-29T10:09:34;34.44;41.46
65478;SHT31;53678;39.642;22.430;2022-07-29T10:12:11;34.00;40.85
65478;SHT31;53678;39.642;22.430;2022-07-29T10:14:40;33.82;41.53
65478;SHT31;53678;39.642;22.430;2022-07-29T10:17:07;33.92;40.83
65478;SHT31;53678;39.642;22.430;2022-07-29T10:19:34;33.58;39.57
65478;SHT31;53678;39.642;22.430;2022-07-29T10:22:05;33.55;40.25
65478;SHT31;53678;39.642;22.430;2022-07-29T10:24:32;33.99;39.84
65478;SHT31;53678;39.642;22.430;2022-07-29T10:27:23;34.40;38.46
65478;SHT31;53678;39.642;22.430;2022-07-29T10:41:06;33.31;36.65
65478;SHT31;53678;39.642;22.430;2022-07-29T10:44:09;33.45;36.52
65478;SHT31;53678;39.642;22.430;2022-07-29T10:46:40;33.42;37.39
65478;SHT31;53678;39.642;22.430;2022-07-29T10:49:08;33.73;36.43
65478;SHT31;53678;39.642;22.430;2022-07-29T10:54:40;33.41;36.20
65478;SHT31;53678;39.642;22.430;2022-07-29T11:07:25;33.88;34.97
65478;SHT31;53678;39.642;22.430;2022-07-29T11:15:09;34.58;34.15
65478;SHT31;53678;39.642;22.430;2022-07-29T11:23:20;34.11;34.48
65478;SHT31;53678;39.642;22.430;2022-07-29T11:28:37;33.96;34.55
65478;SHT31;53678;39.642;22.430;2022-07-29T11:31:07;34.30;34.30
65478;SHT31;53678;39.642;22.430;2022-07-29T11:33:35;34.21;34.63
65478;SHT31;53678;39.642;22.430;2022-07-29T11:36:12;33.90;34.60
65478;SHT31;53678;39.642;22.430;2022-07-29T11:38:40;34.17;35.50
65478;SHT31;53678;39.642;22.430;2022-07-29T11:43:56;34.38;34.63
65478;SHT31;53678;39.642;22.430;2022-07-29T11:49:08;34.44;35.18
65478;SHT31;53678;39.642;22.430;2022-07-29T11:51:37;34.41;34.96
65478;SHT31;53678;39.642;22.430;2022-07-29T11:54:04;34.38;34.86
65478;SHT31;53678;39.642;22.430;2022-07-29T11:56:31;34.33;34.34
65478;SHT31;53678;39.642;22.430;2022-07-29T11:59:05;34.51;34.59
65478;SHT31;53678;39.642;22.430;2022-07-29T12:01:32;34.50;34.42
65478;SHT31;53678;39.642;22.430;2022-07-29T12:04:05;34.85;34.01
65478;SHT31;53678;39.642;22.430;2022-07-29T12:06:35;34.98;34.09
65478;SHT31;53678;39.642;22.430;2022-07-29T12:09:08;34.86;34.14
65478;SHT31;53678;39.642;22.430;2022-07-29T12:11:34;34.96;34.18
65478;SHT31;53678;39.642;22.430;2022-07-29T12:14:00;34.96;34.68
65478;SHT31;53678;39.642;22.430;2022-07-29T12:16:36;34.23;35.74
65478;SHT31;53678;39.642;22.430;2022-07-29T12:19:03;34.24;35.91
65478;SHT31;53678;39.642;22.430;2022-07-29T12:21:51;34.43;35.73
65478;SHT31;53678;39.642;22.430;2022-07-29T12:24:18;34.14;36.14
65478;SHT31;53678;39.642;22.430;2022-07-29T12:26:59;34.17;36.58
65478;SHT31;53678;39.642;22.430;2022-07-29T12:29:25;34.10;36.26
65478;SHT31;53678;39.642;22.430;2022-07-29T12:31:55;34.17;36.64
65478;SHT31;53678;39.642;22.430;2022-07-29T12:34:23;33.90;37.47
65478;SHT31;53678;39.642;22.430;2022-07-29T12:36:50;34.06;37.47
65478;SHT31;53678;39.642;22.430;2022-07-29T12:39:16;34.21;37.58
65478;SHT31;53678;39.642;22.430;2022-07-29T12:41:43;34.13;37.45
65478;SHT31;53678;39.642;22.430;2022-07-29T12:44:10;34.40;36.95
65478;SHT31;53678;39.642;22.430;2022-07-29T12:46:36;34.16;36.73
65478;SHT31;53678;39.642;22.430;2022-07-29T12:49:03;34.50;36.43
65478;SHT31;53678;39.642;22.430;2022-07-29T12:51:34;34.25;36.95
65478;SHT31;53678;39.642;22.430;2022-07-29T12:54:13;34.33;37.45
65478;SHT31;53678;39.642;22.430;2022-07-29T12:56:40;34.38;37.04
65478;SHT31;53678;39.642;22.430;2022-07-29T12:59:18;34.45;37.35
65478;SHT31;53678;39.642;22.430;2022-07-29T13:01:46;34.45;37.44
65478;SHT31;53678;39.642;22.430;2022-07-29T13:04:27;34.41;37.60
65478;SHT31;53678;39.642;22.430;2022-07-29T13:07:03;34.36;37.06
65478;SHT31;53678;39.642;22.430;2022-07-29T13:09:42;34.13;37.70
65478;SHT31;53678;39.642;22.430;2022-07-29T13:12:10;34.40;37.27
65478;SHT31;53678;39.642;22.430;2022-07-29T13:14:42;34.45;37.58
65478;SHT31;53678;39.642;22.430;2022-07-29T13:17:10;34.37;37.30
65478;SHT31;53678;39.642;22.430;2022-07-29T13:22:20;34.58;37.53
65478;SHT31;53678;39.642;22.430;2022-07-29T13:27:18;34.14;37.88
65478;SHT31;53678;39.642;22.430;2022-07-29T13:29:45;34.13;37.75
65478;SHT31;53678;39.642;22.430;2022-07-29T13:32:12;34.10;37.82
65478;SHT31;53678;39.642;22.430;2022-07-29T13:34:39;33.96;37.56
65478;SHT31;53678;39.642;22.430;2022-07-29T13:37:06;33.85;38.20
65478;SHT31;53678;39.642;22.430;2022-07-29T13:39:32;33.99;37.91
65478;SHT31;53678;39.642;22.430;2022-07-29T13:41:58;34.07;37.74
65478;SHT31;53678;39.642;22.430;2022-07-29T13:44:24;34.13;37.55
65478;SHT31;53678;39.642;22.430;2022-07-29T13:46:50;34.20;37.73
65478;SHT31;53678;39.642;22.430;2022-07-29T13:49:16;34.28;37.65
65478;SHT31;53678;39.642;22.430;2022-07-29T13:51:42;34.13;38.02
65478;SHT31;53678;39.642;22.430;2022-07-29T13:54:08;34.30;37.95
65478;SHT31;53678;39.642;22.430;2022-07-29T13:56:34;34.43;37.44
65478;SHT31;53678;39.642;22.430;2022-07-29T13:59:00;34.48;37.34
65478;SHT31;53678;39.642;22.430;2022-07-29T14:01:26;34.57;36.82
65478;SHT31;53678;39.642;22.430;2022-07-29T14:03:53;34.52;37.42
65478;SHT31;53678;39.642;22.430;2022-07-29T14:06:19;34.47;37.49
65478;SHT31;53678;39.642;22.430;2022-07-29T14:08:45;34.44;37.26
65478;SHT31;53678;39.642;22.430;2022-07-29T14:11:11;34.07;37.67
65478;SHT31;53678;39.642;22.430;2022-07-29T14:13:36;33.89;38.18
65478;SHT31;53678;39.642;22.430;2022-07-29T14:16:03;33.92;37.58
65478;SHT31;53678;39.642;22.430;2022-07-29T14:18:29;33.97;37.76
65478;SHT31;53678;39.642;22.430;2022-07-29T14:20:54;34.07;37.78
65478;SHT31;53678;39.642;22.430;2022-07-29T14:23:21;34.28;36.87
65478;SHT31;53678;39.642;22.430;2022-07-29T14:25:46;33.94;37.17
65478;SHT31;53678;39.642;22.430;2022-07-29T14:28:12;34.07;36.88
65478;SHT31;53678;39.642;22.430;2022-07-29T14:30:38;33.89;37.02
65478;SHT31;53678;39.642;22.430;2022-07-29T14:33:05;34.04;36.75
65478;SHT31;53678;39.642;22.430;2022-07-29T14:35:31;34.00;36.97
65478;SHT31;53678;39.642;22.430;2022-07-29T14:37:57;34.03;36.60
65478;SHT31;53678;39.642;22.430;2022-07-29T14:40:23;34.14;36.57
65478;SHT31;53678;39.642;22.430;2022-07-29T14:42:51;34.00;36.17
65478;SHT31;53678;39.642;22.430;2022-07-29T14:45:17;33.82;36.54
65478;SHT31;53678;39.642;22.430;2022-07-29T14:47:43;33.70;36.81
65478;SHT31;53678;39.642;22.430;2022-07-29T14:50:09;33.73;36.92
65478;SHT31;53678;39.642;22.430;2022-07-29T14:52:36;33.73;36.59
65478;SHT31;53678;39.642;22.430;2022-07-29T14:55:03;33.79;36.45
65478;SHT31;53678;39.642;22.430;2022-07-29T14:57:29;33.85;36.59
65478;SHT31;53678;39.642;22.430;2022-07-29T14:59:55;33.88;36.54
65478;SHT31;53678;39.642;22.430;2022-07-29T15:02:21;34.03;36.24
65478;SHT31;53678;39.642;22.430;2022-07-29T15:04:47;34.10;36.07
65478;SHT31;53678;39.642;22.430;2022-07-29T15:07:14;33.96;35.74
65478;SHT31;53678;39.642;22.430;2022-07-29T15:09:40;33.89;35.97
65478;SHT31;53678;39.642;22.430;2022-07-29T15:12:06;33.89;36.15
65478;SHT31;53678;39.642;22.430;2022-07-29T15:14:33;33.88;36.13
65478;SHT31;53678;39.642;22.430;2022-07-29T15:16:59;33.58;36.76
65478;SHT31;53678;39.642;22.430;2022-07-29T15:19:25;33.59;36.95
65478;SHT31;53678;39.642;22.430;2022-07-29T15:21:51;33.73;36.78
65478;SHT31;53678;39.642;22.430;2022-07-29T15:24:17;33.77;36.53
65478;SHT31;53678;39.642;22.430;2022-07-29T15:26:43;33.83;36.36
65478;SHT31;53678;39.642;22.430;2022-07-29T15:29:09;33.86;35.98
65478;SHT31;53678;39.642;22.430;2022-07-29T15:31:35;33.74;36.03
65478;SHT31;53678;39.642;22.430;2022-07-29T15:34:01;33.62;36.19
65478;SHT31;53678;39.642;22.430;2022-07-29T15:36:27;33.46;36.60
65478;SHT31;53678;39.642;22.430;2022-07-29T15:38:53;33.41;36.33
65478;SHT31;53678;39.642;22.430;2022-07-29T15:41:20;33.28;36.46
65478;SHT31;53678;39.642;22.430;2022-07-29T15:43:46;33.08;36.31
65478;SHT31;53678;39.642;22.430;2022-07-29T15:46:15;33.11;36.19
65478;SHT31;53678;39.642;22.430;2022-07-29T15:49:00;33.19;36.25
65478;SHT31;53678;39.642;22.430;2022-07-29T15:51:27;33.11;36.08
65478;SHT31;53678;39.642;22.430;2022-07-29T15:53:53;33.14;36.01
65478;SHT31;53678;39.642;22.430;2022-07-29T15:56:19;33.00;36.23
65478;SHT31;53678;39.642;22.430;2022-07-29T15:58:45;33.05;36.13
65478;SHT31;53678;39.642;22.430;2022-07-29T16:01:11;32.97;36.30
65478;SHT31;53678;39.642;22.430;2022-07-29T16:03:37;32.78;35.94
65478;SHT31;53678;39.642;22.430;2022-07-29T16:06:03;32.64;36.48
65478;SHT31;53678;39.642;22.430;2022-07-29T16:08:30;32.64;35.98
65478;SHT31;53678;39.642;22.430;2022-07-29T16:10:55;32.59;36.28
65478;SHT31;53678;39.642;22.430;2022-07-29T16:13:21;32.61;36.06
65478;SHT31;53678;39.642;22.430;2022-07-29T16:15:47;32.52;35.77
65478;SHT31;53678;39.642;22.430;2022-07-29T16:18:13;32.46;36.09
65478;SHT31;53678;39.642;22.430;2022-07-29T16:20:40;32.57;35.59
65478;SHT31;53678;39.642;22.430;2022-07-29T16:23:06;32.56;35.10